sensor_id;sensor_type;location;lat;lon;timestamp;pressure;altitude;pressure_sealevel;temperature;humidity
4022;BME280;2025;48.260;16.432;2023-04-03T00:00:33;100290.91;;;4.35;64.38
4022;BME280;2025;48.260;16.432;2023-04-03T00:03:00;100286.75;;;4.33;64.76
4022;BME280;2025;48.260;16.432;2023-04-03T00:05:27;100289.13;;;4.36;64.80
4022;BME280;2025;48.260;16.432;2023-04-03T00:07:54;100292.94;;;4.32;65.53
4022;BME280;2025;48.260;16.432;2023-04-03T00:10:21;100292.94;;;4.32;64.37
4022;BME280;2025;48.260;16.432;2023-04-03T00:12:49;100285.09;;;4.32;64.89
4022;BME280;2025;48.260;16.432;2023-04-03T00:15:17;100292.94;;;4.32;64.43
4022;BME280;2025;48.260;16.432;2023-04-03T00:17:44;100295.53;;;4.32;65.25
4022;BME280;2025;48.260;16.432;2023-04-03T00:20:11;100299.78;;;4.33;64.74
4022;BME280;2025;48.260;16.432;2023-04-03T00:22:38;100300.03;;;4.30;65.01
4022;BME280;2025;48.260;16.432;2023-04-03T00:25:06;100296.59;;;4.29;65.19
4022;BME280;2025;48.260;16.432;2023-04-03T00:27:33;100298.59;;;4.26;65.95
4022;BME280;2025;48.260;16.432;2023-04-03T00:30:05;100309.75;;;4.28;65.24
4022;BME280;2025;48.260;16.432;2023-04-03T00:32:32;100300.03;;;4.30;64.76
4022;BME280;2025;48.260;16.432;2023-04-03T00:34:59;100306.56;;;4.35;64.84
4022;BME280;2025;48.260;16.432;2023-04-03T00:37:26;100299.69;;;4.34;65.25
4022;BME280;2025;48.260;16.432;2023-04-03T00:39:53;100302.53;;;4.31;65.72
4022;BME280;2025;48.260;16.432;2023-04-03T00:42:20;100304.44;;;4.29;65.18
4022;BME280;2025;48.260;16.432;2023-04-03T00:47:55;100302.28;;;4.23;65.24
4022;BME280;2025;48.260;16.432;2023-04-03T00:50:25;100307.59;;;4.21;65.77
4022;BME280;2025;48.260;16.432;2023-04-03T00:52:53;100303.81;;;4.26;66.10
4022;BME280;2025;48.260;16.432;2023-04-03T00:55:20;100308.44;;;4.22;66.39
4022;BME280;2025;48.260;16.432;2023-04-03T00:57:48;100307.38;;;4.25;66.21
4022;BME280;2025;48.260;16.432;2023-04-03T01:00:18;100314.50;;;4.34;65.19
4022;BME280;2025;48.260;16.432;2023-04-03T01:02:46;100316.75;;;4.27;66.25
4022;BME280;2025;48.260;16.432;2023-04-03T01:05:15;100309.84;;;4.26;66.49
4022;BME280;2025;48.260;16.432;2023-04-03T01:07:43;100314.34;;;4.24;66.86
4022;BME280;2025;48.260;16.432;2023-04-03T01:10:14;100308.56;;;4.20;66.76
4022;BME280;2025;48.260;16.432;2023-04-03T01:12:43;100318.03;;;4.21;66.39
4022;BME280;2025;48.260;16.432;2023-04-03T01:15:12;100317.09;;;4.22;66.17
4022;BME280;2025;48.260;16.432;2023-04-03T01:17:41;100316.47;;;4.19;67.06
4022;BME280;2025;48.260;16.432;2023-04-03T01:23:22;100315.41;;;4.21;66.99
4022;BME280;2025;48.260;16.432;2023-04-03T01:25:54;100319.09;;;4.19;67.13
4022;BME280;2025;48.260;16.432;2023-04-03T01:28:23;100320.88;;;4.18;66.68
4022;BME280;2025;48.260;16.432;2023-04-03T01:30:55;100328.69;;;4.18;66.31
4022;BME280;2025;48.260;16.432;2023-04-03T01:33:26;100320.75;;;4.20;66.79
4022;BME280;2025;48.260;16.432;2023-04-03T01:35:53;100316.13;;;4.23;66.35
4022;BME280;2025;48.260;16.432;2023-04-03T01:38:21;100309.38;;;4.21;67.01
4022;BME280;2025;48.260;16.432;2023-04-03T01:40:48;100311.75;;;4.24;66.60
4022;BME280;2025;48.260;16.432;2023-04-03T01:43:15;100324.69;;;4.26;66.51
4022;BME280;2025;48.260;16.432;2023-04-03T01:45:42;100313.31;;;4.27;66.37
4022;BME280;2025;48.260;16.432;2023-04-03T01:48:09;100312.09;;;4.19;66.86
4022;BME280;2025;48.260;16.432;2023-04-03T01:50:39;100317.19;;;4.21;66.37
4022;BME280;2025;48.260;16.432;2023-04-03T01:53:05;100318.63;;;4.25;66.44
4022;BME280;2025;48.260;16.432;2023-04-03T01:55:32;100313.75;;;4.20;66.25
4022;BME280;2025;48.260;16.432;2023-04-03T01:57:59;100311.06;;;4.22;65.96
4022;BME280;2025;48.260;16.432;2023-04-03T02:00:26;100325.25;;;4.18;66.00
4022;BME280;2025;48.260;16.432;2023-04-03T02:02:53;100318.38;;;4.17;66.41
4022;BME280;2025;48.260;16.432;2023-04-03T02:05:20;100324.53;;;4.16;66.81
4022;BME280;2025;48.260;16.432;2023-04-03T02:07:49;100328.31;;;4.12;66.41
4022;BME280;2025;48.260;16.432;2023-04-03T02:10:16;100324.63;;;4.14;66.89
4022;BME280;2025;48.260;16.432;2023-04-03T02:12:43;100323.81;;;4.14;67.05
4022;BME280;2025;48.260;16.432;2023-04-03T02:15:10;100334.97;;;4.16;66.15
4022;BME280;2025;48.260;16.432;2023-04-03T02:17:37;100321.94;;;4.16;66.57
4022;BME280;2025;48.260;16.432;2023-04-03T02:20:05;100332.47;;;4.14;67.14
4022;BME280;2025;48.260;16.432;2023-04-03T02:22:33;100333.53;;;4.12;65.86
4022;BME280;2025;48.260;16.432;2023-04-03T02:25:01;100338.63;;;4.13;65.86
4022;BME280;2025;48.260;16.432;2023-04-03T02:27:28;100337.09;;;4.11;65.68
4022;BME280;2025;48.260;16.432;2023-04-03T02:29:55;100333.53;;;4.12;66.66
4022;BME280;2025;48.260;16.432;2023-04-03T02:32:22;100332.31;;;4.05;66.58
4022;BME280;2025;48.260;16.432;2023-04-03T02:34:49;100345.97;;;4.08;66.26
4022;BME280;2025;48.260;16.432;2023-04-03T02:37:16;100338.72;;;4.12;65.69
4022;BME280;2025;48.260;16.432;2023-04-03T02:39:43;100341.56;;;4.09;65.33
4022;BME280;2025;48.260;16.432;2023-04-03T02:42:11;100345.00;;;4.09;65.85
4022;BME280;2025;48.260;16.432;2023-04-03T02:44:38;100338.34;;;4.05;65.21
4022;BME280;2025;48.260;16.432;2023-04-03T02:47:05;100343.78;;;4.02;65.35
4022;BME280;2025;48.260;16.432;2023-04-03T02:49:32;100346.31;;;4.04;65.17
4022;BME280;2025;48.260;16.432;2023-04-03T02:51:59;100343.69;;;4.04;64.81
4022;BME280;2025;48.260;16.432;2023-04-03T02:54:26;100351.38;;;4.05;65.39
4022;BME280;2025;48.260;16.432;2023-04-03T02:56:56;100350.31;;;4.08;65.21
4022;BME280;2025;48.260;16.432;2023-04-03T02:59:24;100348.91;;;4.04;66.27
4022;BME280;2025;48.260;16.432;2023-04-03T03:01:51;100354.00;;;4.05;65.47
4022;BME280;2025;48.260;16.432;2023-04-03T03:04:18;100351.50;;;4.04;65.80
4022;BME280;2025;48.260;16.432;2023-04-03T03:06:45;100359.09;;;4.07;66.32
4022;BME280;2025;48.260;16.432;2023-04-03T03:09:13;100353.72;;;3.97;67.06
4022;BME280;2025;48.260;16.432;2023-04-03T03:11:40;100351.22;;;3.95;66.33
4022;BME280;2025;48.260;16.432;2023-04-03T03:14:07;100353.84;;;3.95;66.42
4022;BME280;2025;48.260;16.432;2023-04-03T03:16:35;100353.72;;;3.97;65.61
4022;BME280;2025;48.260;16.432;2023-04-03T03:19:02;100349.34;;;3.97;66.47
4022;BME280;2025;48.260;16.432;2023-04-03T03:21:30;100359.53;;;4.00;66.10
4022;BME280;2025;48.260;16.432;2023-04-03T03:23:57;100356.84;;;4.02;65.95
4022;BME280;2025;48.260;16.432;2023-04-03T03:26:23;100359.94;;;4.07;65.50
4022;BME280;2025;48.260;16.432;2023-04-03T03:28:50;100360.88;;;4.06;66.55
4022;BME280;2025;48.260;16.432;2023-04-03T03:31:17;100362.75;;;4.04;65.71
4022;BME280;2025;48.260;16.432;2023-04-03T03:33:46;100365.59;;;4.01;65.90
4022;BME280;2025;48.260;16.432;2023-04-03T03:36:13;100363.94;;;4.00;65.34
4022;BME280;2025;48.260;16.432;2023-04-03T03:38:40;100370.91;;;3.99;64.50
4022;BME280;2025;48.260;16.432;2023-04-03T03:41:07;100364.16;;;3.97;65.02
4022;BME280;2025;48.260;16.432;2023-04-03T03:43:34;100368.53;;;3.96;64.69
4022;BME280;2025;48.260;16.432;2023-04-03T03:46:01;100377.91;;;3.99;64.23
4022;BME280;2025;48.260;16.432;2023-04-03T03:48:28;100377.41;;;3.94;65.24
4022;BME280;2025;48.260;16.432;2023-04-03T03:50:56;100371.16;;;3.96;64.81
4022;BME280;2025;48.260;16.432;2023-04-03T03:53:23;100370.44;;;3.94;64.57
4022;BME280;2025;48.260;16.432;2023-04-03T03:55:51;100376.69;;;3.92;65.16
4022;BME280;2025;48.260;16.432;2023-04-03T03:58:17;100376.56;;;3.93;65.31
4022;BME280;2025;48.260;16.432;2023-04-03T04:00:44;100379.50;;;3.89;66.60
4022;BME280;2025;48.260;16.432;2023-04-03T04:03:11;100384.28;;;3.95;65.79
4022;BME280;2025;48.260;16.432;2023-04-03T04:05:38;100379.41;;;3.90;65.96
4022;BME280;2025;48.260;16.432;2023-04-03T04:08:07;100372.97;;;3.83;67.16
4022;BME280;2025;48.260;16.432;2023-04-03T04:10:34;100383.50;;;3.82;66.31
4022;BME280;2025;48.260;16.432;2023-04-03T04:13:01;100379.63;;;3.87;66.91
4022;BME280;2025;48.260;16.432;2023-04-03T04:15:28;100383.41;;;3.83;66.58
4022;BME280;2025;48.260;16.432;2023-04-03T04:17:55;100375.09;;;3.78;66.48
4022;BME280;2025;48.260;16.432;2023-04-03T04:20:22;100369.34;;;3.73;66.69
4022;BME280;2025;48.260;16.432;2023-04-03T04:22:49;100373.22;;;3.80;66.60
4022;BME280;2025;48.260;16.432;2023-04-03T04:25:18;100370.47;;;3.82;66.55
4022;BME280;2025;48.260;16.432;2023-04-03T04:27:45;100378.75;;;3.75;67.33
4022;BME280;2025;48.260;16.432;2023-04-03T04:30:12;100379.78;;;3.73;67.05
4022;BME280;2025;48.260;16.432;2023-04-03T04:32:40;100382.19;;;3.76;67.17
4022;BME280;2025;48.260;16.432;2023-04-03T04:35:07;100383.09;;;3.75;66.60
4022;BME280;2025;48.260;16.432;2023-04-03T04:37:35;100382.06;;;3.77;66.69
4022;BME280;2025;48.260;16.432;2023-04-03T04:40:02;100381.44;;;3.74;66.99
4022;BME280;2025;48.260;16.432;2023-04-03T04:42:31;100395.06;;;3.77;67.12
4022;BME280;2025;48.260;16.432;2023-04-03T04:44:58;100389.88;;;3.77;67.21
4022;BME280;2025;48.260;16.432;2023-04-03T04:47:24;100398.72;;;3.75;67.45
4022;BME280;2025;48.260;16.432;2023-04-03T04:49:51;100387.06;;;3.80;67.45
4022;BME280;2025;48.260;16.432;2023-04-03T04:52:18;100392.28;;;3.80;67.39
4022;BME280;2025;48.260;16.432;2023-04-03T04:54:45;100387.25;;;3.77;67.09
4022;BME280;2025;48.260;16.432;2023-04-03T04:57:12;100388.44;;;3.73;67.24
4022;BME280;2025;48.260;16.432;2023-04-03T04:59:41;100392.09;;;3.71;68.27
4022;BME280;2025;48.260;16.432;2023-04-03T05:02:08;100399.69;;;3.74;67.52
4022;BME280;2025;48.260;16.432;2023-04-03T05:04:35;100399.97;;;3.82;67.06
4022;BME280;2025;48.260;16.432;2023-04-03T05:07:02;100400.19;;;3.79;66.69
4022;BME280;2025;48.260;16.432;2023-04-03T05:09:29;100404.81;;;3.75;66.68
4022;BME280;2025;48.260;16.432;2023-04-03T05:11:56;100412.09;;;3.70;66.09
4022;BME280;2025;48.260;16.432;2023-04-03T05:14:23;100401.66;;;3.70;65.92
4022;BME280;2025;48.260;16.432;2023-04-03T05:16:51;100409.13;;;3.64;66.45
4022;BME280;2025;48.260;16.432;2023-04-03T05:19:19;100411.72;;;3.64;65.86
4022;BME280;2025;48.260;16.432;2023-04-03T05:21:46;100405.88;;;3.60;66.52
4022;BME280;2025;48.260;16.432;2023-04-03T05:24:14;100410.75;;;3.65;66.41
4022;BME280;2025;48.260;16.432;2023-04-03T05:26:41;100421.59;;;3.71;65.91
4022;BME280;2025;48.260;16.432;2023-04-03T05:29:09;100429.16;;;3.74;66.35
4022;BME280;2025;48.260;16.432;2023-04-03T05:31:36;100424.69;;;3.76;66.56
4022;BME280;2025;48.260;16.432;2023-04-03T05:34:04;100419.97;;;3.82;66.34
4022;BME280;2025;48.260;16.432;2023-04-03T05:36:31;100417.69;;;3.77;66.42
4022;BME280;2025;48.260;16.432;2023-04-03T05:38:58;100420.81;;;3.82;65.78
4022;BME280;2025;48.260;16.432;2023-04-03T05:41:26;100413.06;;;3.93;66.62
4022;BME280;2025;48.260;16.432;2023-04-03T05:43:53;100420.59;;;4.09;65.67
4022;BME280;2025;48.260;16.432;2023-04-03T05:46:20;100418.72;;;4.11;64.58
4022;BME280;2025;48.260;16.432;2023-04-03T05:48:47;100417.75;;;4.12;65.00
4022;BME280;2025;48.260;16.432;2023-04-03T05:51:17;100422.66;;;4.17;64.22
4022;BME280;2025;48.260;16.432;2023-04-03T05:53:45;100430.31;;;4.07;64.22
4022;BME280;2025;48.260;16.432;2023-04-03T05:56:14;100423.88;;;4.00;64.55
4022;BME280;2025;48.260;16.432;2023-04-03T05:58:41;100432.84;;;3.96;64.66
4022;BME280;2025;48.260;16.432;2023-04-03T06:01:08;100436.09;;;3.99;64.95
4022;BME280;2025;48.260;16.432;2023-04-03T06:03:35;100441.84;;;3.92;63.54
4022;BME280;2025;48.260;16.432;2023-04-03T06:06:04;100443.09;;;3.86;63.55
4022;BME280;2025;48.260;16.432;2023-04-03T06:08:32;100441.56;;;3.84;63.08
4022;BME280;2025;48.260;16.432;2023-04-03T06:11:00;100440.94;;;3.80;63.35
4022;BME280;2025;48.260;16.432;2023-04-03T06:13:28;100444.06;;;3.85;62.64
4022;BME280;2025;48.260;16.432;2023-04-03T06:15:55;100444.97;;;3.84;63.38
4022;BME280;2025;48.260;16.432;2023-04-03T06:18:22;100444.59;;;3.77;63.00
4022;BME280;2025;48.260;16.432;2023-04-03T06:20:49;100449.47;;;3.82;62.73
4022;BME280;2025;48.260;16.432;2023-04-03T06:23:16;100447.81;;;3.81;62.96
4022;BME280;2025;48.260;16.432;2023-04-03T06:25:45;100448.25;;;3.75;64.60
4022;BME280;2025;48.260;16.432;2023-04-03T06:28:12;100444.47;;;3.79;63.42
4022;BME280;2025;48.260;16.432;2023-04-03T06:30:39;100459.19;;;3.80;63.26
4022;BME280;2025;48.260;16.432;2023-04-03T06:33:06;100470.53;;;3.79;62.76
4022;BME280;2025;48.260;16.432;2023-04-03T06:35:33;100471.59;;;3.76;62.02
4022;BME280;2025;48.260;16.432;2023-04-03T06:38:00;100473.06;;;3.68;62.48
4022;BME280;2025;48.260;16.432;2023-04-03T06:40:29;100466.94;;;3.69;63.12
4022;BME280;2025;48.260;16.432;2023-04-03T06:42:58;100480.16;;;3.66;62.74
4022;BME280;2025;48.260;16.432;2023-04-03T06:45:25;100480.38;;;3.63;62.44
4022;BME280;2025;48.260;16.432;2023-04-03T06:47:51;100483.06;;;3.61;62.44
4022;BME280;2025;48.260;16.432;2023-04-03T06:50:19;100494.94;;;3.65;62.54
4022;BME280;2025;48.260;16.432;2023-04-03T06:52:46;100494.22;;;3.63;63.54
4022;BME280;2025;48.260;16.432;2023-04-03T06:55:13;100498.78;;;3.72;61.91
4022;BME280;2025;48.260;16.432;2023-04-03T06:57:40;100488.50;;;3.71;62.79
4022;BME280;2025;48.260;16.432;2023-04-03T07:00:10;100494.41;;;3.73;62.36
4022;BME280;2025;48.260;16.432;2023-04-03T07:02:37;100486.41;;;3.76;62.04
4022;BME280;2025;48.260;16.432;2023-04-03T07:05:05;100494.63;;;3.70;61.99
4022;BME280;2025;48.260;16.432;2023-04-03T07:07:32;100496.63;;;3.66;61.27
4022;BME280;2025;48.260;16.432;2023-04-03T07:09:59;100498.91;;;3.71;60.84
4022;BME280;2025;48.260;16.432;2023-04-03T07:12:26;100501.53;;;3.71;60.37
4022;BME280;2025;48.260;16.432;2023-04-03T07:14:53;100499.28;;;3.77;60.09
4022;BME280;2025;48.260;16.432;2023-04-03T07:17:22;100504.81;;;3.86;59.78
4022;BME280;2025;48.260;16.432;2023-04-03T07:19:49;100505.41;;;4.02;60.24
4022;BME280;2025;48.260;16.432;2023-04-03T07:22:16;100506.69;;;4.20;60.21
4022;BME280;2025;48.260;16.432;2023-04-03T07:24:43;100508.34;;;4.21;60.11
4022;BME280;2025;48.260;16.432;2023-04-03T07:27:10;100513.41;;;4.36;59.62
4022;BME280;2025;48.260;16.432;2023-04-03T07:29:38;100507.44;;;4.47;58.24
4022;BME280;2025;48.260;16.432;2023-04-03T07:32:05;100520.13;;;4.51;57.38
4022;BME280;2025;48.260;16.432;2023-04-03T07:34:34;100517.91;;;4.58;58.20
4022;BME280;2025;48.260;16.432;2023-04-03T07:37:01;100507.69;;;4.79;58.00
4022;BME280;2025;48.260;16.432;2023-04-03T07:39:30;100512.81;;;4.92;56.34
4022;BME280;2025;48.260;16.432;2023-04-03T07:41:57;100513.66;;;5.03;56.77
4022;BME280;2025;48.260;16.432;2023-04-03T07:44:24;100511.94;;;5.15;55.92
4022;BME280;2025;48.260;16.432;2023-04-03T07:46:51;100514.09;;;5.33;55.63
4022;BME280;2025;48.260;16.432;2023-04-03T07:49:18;100509.13;;;5.41;54.84
4022;BME280;2025;48.260;16.432;2023-04-03T07:51:46;100509.63;;;5.57;55.68
4022;BME280;2025;48.260;16.432;2023-04-03T07:54:14;100519.47;;;5.54;54.27
4022;BME280;2025;48.260;16.432;2023-04-03T07:56:41;100518.25;;;5.46;54.43
4022;BME280;2025;48.260;16.432;2023-04-03T07:59:09;100518.13;;;5.37;54.45
4022;BME280;2025;48.260;16.432;2023-04-03T08:01:37;100516.94;;;5.18;54.72
4022;BME280;2025;48.260;16.432;2023-04-03T08:04:04;100514.41;;;5.17;54.63
4022;BME280;2025;48.260;16.432;2023-04-03T08:06:32;100519.28;;;5.21;54.22
4022;BME280;2025;48.260;16.432;2023-04-03T08:09:02;100517.16;;;5.26;54.59
4022;BME280;2025;48.260;16.432;2023-04-03T08:11:30;100506.88;;;5.36;54.15
4022;BME280;2025;48.260;16.432;2023-04-03T08:13:58;100510.53;;;5.56;55.35
4022;BME280;2025;48.260;16.432;2023-04-03T08:16:25;100506.88;;;5.70;53.32
4022;BME280;2025;48.260;16.432;2023-04-03T08:18:53;100509.00;;;5.76;53.95
4022;BME280;2025;48.260;16.432;2023-04-03T08:21:20;100506.16;;;5.79;53.56
4022;BME280;2025;48.260;16.432;2023-04-03T08:23:48;100509.94;;;5.86;52.83
4022;BME280;2025;48.260;16.432;2023-04-03T08:26:19;100503.78;;;5.65;53.04
4022;BME280;2025;48.260;16.432;2023-04-03T08:28:47;100514.25;;;5.76;53.82
4022;BME280;2025;48.260;16.432;2023-04-03T08:31:16;100516.00;;;5.76;53.37
4022;BME280;2025;48.260;16.432;2023-04-03T08:33:44;100521.59;;;5.71;54.50
4022;BME280;2025;48.260;16.432;2023-04-03T08:36:17;100522.66;;;5.91;54.92
4022;BME280;2025;48.260;16.432;2023-04-03T08:38:45;100517.66;;;6.10;50.79
4022;BME280;2025;48.260;16.432;2023-04-03T08:41:20;100527.75;;;6.26;49.73
4022;BME280;2025;48.260;16.432;2023-04-03T08:44:14;100523.72;;;6.54;51.13
4022;BME280;2025;48.260;16.432;2023-04-03T08:49:36;100520.84;;;6.90;46.96
4022;BME280;2025;48.260;16.432;2023-04-03T08:52:09;100509.03;;;6.74;46.18
4022;BME280;2025;48.260;16.432;2023-04-03T08:54:49;100513.53;;;6.51;47.75
4022;BME280;2025;48.260;16.432;2023-04-03T08:57:20;100499.06;;;6.68;49.62
4022;BME280;2025;48.260;16.432;2023-04-03T08:59:51;100511.31;;;6.68;48.39
4022;BME280;2025;48.260;16.432;2023-04-03T09:02:24;100504.88;;;6.40;45.94
4022;BME280;2025;48.260;16.432;2023-04-03T09:04:53;100514.00;;;6.13;46.83
4022;BME280;2025;48.260;16.432;2023-04-03T09:07:25;100517.00;;;5.97;49.05
4022;BME280;2025;48.260;16.432;2023-04-03T09:09:59;100503.41;;;5.92;46.95
4022;BME280;2025;48.260;16.432;2023-04-03T09:12:35;100512.81;;;5.83;46.98
4022;BME280;2025;48.260;16.432;2023-04-03T09:15:14;100524.59;;;6.00;46.92
4022;BME280;2025;48.260;16.432;2023-04-03T09:17:50;100510.41;;;5.91;47.27
4022;BME280;2025;48.260;16.432;2023-04-03T09:20:21;100514.00;;;5.68;44.54
4022;BME280;2025;48.260;16.432;2023-04-03T09:22:50;100516.97;;;5.41;45.54
4022;BME280;2025;48.260;16.432;2023-04-03T09:25:20;100521.69;;;5.47;46.53
4022;BME280;2025;48.260;16.432;2023-04-03T09:27:50;100517.56;;;5.56;47.45
4022;BME280;2025;48.260;16.432;2023-04-03T09:30:19;100523.97;;;5.52;47.88
4022;BME280;2025;48.260;16.432;2023-04-03T09:32:48;100527.06;;;5.57;48.17
4022;BME280;2025;48.260;16.432;2023-04-03T09:35:21;100533.13;;;5.57;50.54
4022;BME280;2025;48.260;16.432;2023-04-03T09:37:50;100536.66;;;5.45;48.14
4022;BME280;2025;48.260;16.432;2023-04-03T09:40:38;100547.09;;;5.22;48.19
4022;BME280;2025;48.260;16.432;2023-04-03T09:43:28;100550.94;;;5.05;48.36
4022;BME280;2025;48.260;16.432;2023-04-03T09:45:56;100538.03;;;5.04;49.20
4022;BME280;2025;48.260;16.432;2023-04-03T09:48:50;100552.25;;;5.00;48.45
4022;BME280;2025;48.260;16.432;2023-04-03T09:51:17;100550.78;;;4.96;49.19
4022;BME280;2025;48.260;16.432;2023-04-03T09:53:44;100553.88;;;4.90;48.17
4022;BME280;2025;48.260;16.432;2023-04-03T09:56:24;100545.03;;;4.79;47.81
4022;BME280;2025;48.260;16.432;2023-04-03T09:59:07;100549.94;;;4.84;46.77
4022;BME280;2025;48.260;16.432;2023-04-03T10:01:36;100546.59;;;4.82;47.56
4022;BME280;2025;48.260;16.432;2023-04-03T10:04:06;100550.53;;;4.88;47.22
4022;BME280;2025;48.260;16.432;2023-04-03T10:06:35;100551.59;;;4.85;46.65
4022;BME280;2025;48.260;16.432;2023-04-03T10:09:17;100556.69;;;4.86;47.49
4022;BME280;2025;48.260;16.432;2023-04-03T10:11:58;100561.63;;;5.02;47.90
4022;BME280;2025;48.260;16.432;2023-04-03T10:14:28;100561.84;;;4.99;47.13
4022;BME280;2025;48.260;16.432;2023-04-03T10:17:01;100568.88;;;4.99;46.10
4022;BME280;2025;48.260;16.432;2023-04-03T10:19:37;100565.41;;;4.98;45.03
4022;BME280;2025;48.260;16.432;2023-04-03T10:22:16;100559.63;;;5.06;46.30
4022;BME280;2025;48.260;16.432;2023-04-03T10:24:57;100563.31;;;5.15;44.92
4022;BME280;2025;48.260;16.432;2023-04-03T10:27:39;100562.41;;;5.27;44.55
4022;BME280;2025;48.260;16.432;2023-04-03T10:30:20;100559.25;;;5.46;46.20
4022;BME280;2025;48.260;16.432;2023-04-03T10:32:57;100563.28;;;5.61;45.33
4022;BME280;2025;48.260;16.432;2023-04-03T10:35:37;100557.38;;;6.04;46.05
4022;BME280;2025;48.260;16.432;2023-04-03T10:38:11;100557.47;;;7.01;41.47
4022;BME280;2025;48.260;16.432;2023-04-03T10:40:46;100541.84;;;7.93;40.88
4022;BME280;2025;48.260;16.432;2023-04-03T10:43:19;100547.19;;;7.92;40.49
4022;BME280;2025;48.260;16.432;2023-04-03T10:45:54;100557.34;;;7.45;38.89
4022;BME280;2025;48.260;16.432;2023-04-03T10:48:32;100548.44;;;6.94;39.39
4022;BME280;2025;48.260;16.432;2023-04-03T10:51:10;100544.06;;;6.62;41.03
4022;BME280;2025;48.260;16.432;2023-04-03T10:53:44;100552.09;;;6.27;42.50
4022;BME280;2025;48.260;16.432;2023-04-03T10:56:18;100540.97;;;5.80;43.35
4022;BME280;2025;48.260;16.432;2023-04-03T10:58:50;100563.06;;;5.64;42.48
4022;BME280;2025;48.260;16.432;2023-04-03T11:01:27;100541.78;;;5.58;43.19
4022;BME280;2025;48.260;16.432;2023-04-03T11:03:58;100545.06;;;7.24;45.04
4022;BME280;2025;48.260;16.432;2023-04-03T11:06:32;100531.63;;;7.90;40.68
4022;BME280;2025;48.260;16.432;2023-04-03T11:09:05;100544.47;;;7.63;40.34
4022;BME280;2025;48.260;16.432;2023-04-03T11:11:36;100541.94;;;6.56;43.79
4022;BME280;2025;48.260;16.432;2023-04-03T11:14:09;100552.38;;;6.01;42.31
4022;BME280;2025;48.260;16.432;2023-04-03T11:16:46;100551.88;;;5.85;43.14
4022;BME280;2025;48.260;16.432;2023-04-03T11:19:18;100558.31;;;5.58;42.67
4022;BME280;2025;48.260;16.432;2023-04-03T11:21:53;100568.63;;;5.48;43.10
4022;BME280;2025;48.260;16.432;2023-04-03T11:24:24;100562.34;;;5.51;42.03
4022;BME280;2025;48.260;16.432;2023-04-03T11:26:53;100550.56;;;5.45;41.21
4022;BME280;2025;48.260;16.432;2023-04-03T11:29:23;100553.34;;;5.66;40.79
4022;BME280;2025;48.260;16.432;2023-04-03T11:32:15;100540.16;;;7.10;41.76
4022;BME280;2025;48.260;16.432;2023-04-03T11:34:47;100530.38;;;8.54;34.97
4022;BME280;2025;48.260;16.432;2023-04-03T11:37:21;100533.03;;;8.83;34.85
4022;BME280;2025;48.260;16.432;2023-04-03T11:39:56;100523.63;;;8.01;35.71
4022;BME280;2025;48.260;16.432;2023-04-03T11:42:29;100532.50;;;7.39;37.46
4022;BME280;2025;48.260;16.432;2023-04-03T11:45:29;100533.56;;;6.94;37.47
4022;BME280;2025;48.260;16.432;2023-04-03T11:48:01;100543.16;;;6.41;39.06
4022;BME280;2025;48.260;16.432;2023-04-03T11:50:43;100535.38;;;6.18;40.67
4022;BME280;2025;48.260;16.432;2023-04-03T11:53:29;100533.13;;;6.14;39.65
4022;BME280;2025;48.260;16.432;2023-04-03T11:56:01;100530.53;;;6.02;39.39
4022;BME280;2025;48.260;16.432;2023-04-03T11:58:30;100529.69;;;6.02;40.15
4022;BME280;2025;48.260;16.432;2023-04-03T12:01:08;100525.91;;;5.95;40.06
4022;BME280;2025;48.260;16.432;2023-04-03T12:09:34;100520.88;;;5.91;40.18
4022;BME280;2025;48.260;16.432;2023-04-03T12:12:22;100524.13;;;5.95;39.61
4022;BME280;2025;48.260;16.432;2023-04-03T12:14:51;100535.00;;;5.89;39.39
4022;BME280;2025;48.260;16.432;2023-04-03T12:17:22;100526.81;;;5.94;39.11
4022;BME280;2025;48.260;16.432;2023-04-03T12:19:52;100537.03;;;6.08;39.20
4022;BME280;2025;48.260;16.432;2023-04-03T12:22:20;100531.53;;;6.22;40.06
4022;BME280;2025;48.260;16.432;2023-04-03T12:24:50;100532.03;;;6.27;38.15
4022;BME280;2025;48.260;16.432;2023-04-03T12:27:24;100536.09;;;6.09;41.12
4022;BME280;2025;48.260;16.432;2023-04-03T12:29:55;100532.03;;;5.94;38.25
4022;BME280;2025;48.260;16.432;2023-04-03T12:32:35;100527.31;;;5.76;38.88
4022;BME280;2025;48.260;16.432;2023-04-03T12:35:17;100527.06;;;5.57;38.73
4022;BME280;2025;48.260;16.432;2023-04-03T12:41:04;100533.53;;;5.17;40.42
4022;BME280;2025;48.260;16.432;2023-04-03T12:43:46;100524.44;;;5.68;40.02
4022;BME280;2025;48.260;16.432;2023-04-03T12:46:19;100526.53;;;6.30;38.80
4022;BME280;2025;48.260;16.432;2023-04-03T12:48:49;100521.13;;;6.11;40.17
4022;BME280;2025;48.260;16.432;2023-04-03T12:51:19;100518.25;;;5.91;39.04
4022;BME280;2025;48.260;16.432;2023-04-03T12:53:49;100515.63;;;5.80;39.71
4022;BME280;2025;48.260;16.432;2023-04-03T12:56:27;100537.63;;;5.55;38.52
4022;BME280;2025;48.260;16.432;2023-04-03T12:58:56;100530.59;;;5.33;39.78
4022;BME280;2025;48.260;16.432;2023-04-03T13:01:39;100524.19;;;5.37;41.58
4022;BME280;2025;48.260;16.432;2023-04-03T13:04:06;100524.06;;;5.50;39.78
4022;BME280;2025;48.260;16.432;2023-04-03T13:06:38;100525.88;;;5.72;40.18
4022;BME280;2025;48.260;16.432;2023-04-03T13:09:19;100514.25;;;5.76;39.80
4022;BME280;2025;48.260;16.432;2023-04-03T13:11:50;100513.28;;;5.88;40.97
4022;BME280;2025;48.260;16.432;2023-04-03T13:14:20;100522.88;;;6.22;38.60
4022;BME280;2025;48.260;16.432;2023-04-03T13:16:54;100518.34;;;6.24;37.77
4022;BME280;2025;48.260;16.432;2023-04-03T13:19:22;100521.13;;;6.11;39.86
4022;BME280;2025;48.260;16.432;2023-04-03T13:21:53;100526.84;;;6.05;37.74
4022;BME280;2025;48.260;16.432;2023-04-03T13:24:23;100513.28;;;5.77;38.12
4022;BME280;2025;48.260;16.432;2023-04-03T13:26:52;100504.97;;;5.61;40.17
4022;BME280;2025;48.260;16.432;2023-04-03T13:29:23;100516.84;;;5.54;39.84
4022;BME280;2025;48.260;16.432;2023-04-03T13:31:53;100521.59;;;5.48;39.01
4022;BME280;2025;48.260;16.432;2023-04-03T13:34:23;100519.22;;;5.57;41.11
4022;BME280;2025;48.260;16.432;2023-04-03T13:36:56;100522.19;;;5.52;39.86
4022;BME280;2025;48.260;16.432;2023-04-03T13:39:26;100520.25;;;5.43;39.34
4022;BME280;2025;48.260;16.432;2023-04-03T13:41:57;100526.41;;;5.19;39.19